• Join FlightAware (Why Join?)
  • Login
  • US Flag 
07:11PM EDT


 

Airport Tracker/Info


-or-


 

Live Flight TrackerFlight Track Log ✈ SWA1020 ✈ 03-May-2013 ✈ KBUF - KLAS

Flight Track Log - Related Links

Times and Time Zones

All times are in EDT time to prevent confusion due to time zone crossing. See the SWA1020 flight status page for this flight to view local times or setup timezone preferences in your user account.

Time Position Orientation Groundspeed Altitude Reporting Facility
EDT Latitude Longitude Course Direction KTS MPH feet Rate Location/Type
04:52PM 42.9167 -78.7500 213° Southwest 172 198 2,000  Level Buffalo TRACON
04:55PM 42.8097 -78.8456 213° Southwest 256 295 6,400 2,460 Climbing Cleveland Center
04:56PM 42.7353 -78.8758 197° South 267 307 9,600 2,340 Climbing Cleveland Center
04:57PM 42.6606 -78.9061 197° South 273 314 11,100 1,680 Climbing Cleveland Center
04:58PM 42.5675 -78.9508 199° South 319 367 13,000 2,160 Climbing Cleveland Center
04:59PM 42.4703 -78.9983 200° South 358 412 15,500 2,400 Climbing Cleveland Center
05:00PM 42.3644 -79.0433 197° South 385 443 17,900 2,100 Climbing Cleveland Center
05:01PM 42.2672 -79.0878 199° South 401 461 19,800 1,860 Climbing Cleveland Center
05:02PM 42.1914 -79.1903 225° Southwest 394 453 21,700 1,740 Climbing Cleveland Center
05:03PM 42.1869 -79.3475 268° West 366 421 23,300 1,620 Climbing Cleveland Center
05:04PM 42.1822 -79.5100 268° West 394 453 25,000 1,500 Climbing Cleveland Center
05:05PM 42.1794 -79.6725 269° West 422 486 26,400 1,260 Climbing Cleveland Center
05:06PM 42.1764 -79.8436 269° West 447 514 27,600 1,200 Climbing Cleveland Center
05:07PM 42.1714 -80.0342 268° West 461 531 28,900 1,500 Climbing Cleveland Center
05:08PM 42.1678 -80.2050 268° West 461 531 30,700 1,620 Climbing Cleveland Center
05:09PM 42.1642 -80.3703 268° West 454 522 32,200 1,200 Climbing Cleveland Center
05:10PM 42.1600 -80.5356 268° West 454 522 33,200 960 Climbing Cleveland Center
05:11PM 42.1558 -80.7008 268° West 448 516 34,200 1,140 Climbing Cleveland Center
05:12PM 42.1492 -80.8661 267° West 448 516 35,500 900 Climbing Cleveland Center
05:13PM 42.1467 -81.0256 269° West 435 501 36,000 240 Climbing Cleveland Center
05:14PM 42.1417 -81.1853 268° West 430 495 36,000  Level Cleveland Center
05:15PM 42.1367 -81.3447 268° West 430 495 36,000  Level Cleveland Center
05:16PM 42.1333 -81.5044 268° West 430 495 36,000  Level Cleveland Center
05:17PM 42.1258 -81.6639 266° West 425 489 36,000  Level Cleveland Center
05:18PM 42.1222 -81.8036 268° West 425 489 36,000  Level Cleveland Center
05:19PM 42.1164 -81.9603 267° West 420 483 36,000  Level Cleveland Center
05:20PM 42.1103 -82.1197 267° West 425 489 36,000  Level Cleveland Center
05:21PM 42.0997 -82.2761 265° West 425 489 36,000  Level Cleveland Center
05:22PM 42.0889 -82.4383 265° West 425 489 36,000  Level Cleveland Center
05:23PM 42.0883 -82.5892 270° West 419 482 36,000  Level Cleveland Center
05:24PM 42.0833 -82.7486 268° West 419 482 36,000  Level Cleveland Center
05:25PM 42.0761 -82.9078 267° West 424 488 36,000  Level Cleveland Center
05:26PM 42.0686 -83.0669 266° West 424 488 36,000  Level Cleveland Center
05:27PM 42.0606 -83.2431 267° West 424 488 36,000  Level Cleveland Center
05:28PM 42.0525 -83.3992 266° West 430 495 36,000  Level Cleveland Center
05:29PM 42.0464 -83.5611 267° West 430 495 36,000  Level Cleveland Center
05:30PM 42.0364 -83.7061 265° West 430 495 36,000  Level Cleveland Center
05:31PM 42.0297 -83.8653 267° West 430 495 36,000  Level Cleveland Center
05:32PM 42.0208 -84.0242 266° West 425 489 36,000  Level Cleveland Center
05:33PM 42.0078 -84.3050 267° West 436 502 36,000  Level Chicago Center
05:34PM 41.9983 -84.4681 266° West 437 503 36,000  Level Chicago Center
05:35PM 41.9889 -84.6311 266° West 437 503 36,000  Level Chicago Center
05:36PM 41.9794 -84.7939 266° West 438 504 36,000  Level Chicago Center
05:37PM 41.9697 -84.9489 265° West 440 506 36,000  Level Chicago Center
05:38PM 41.9572 -85.1436 265° West 441 507 36,000  Level Chicago Center
05:39PM 41.9478 -85.3053 266° West 440 506 36,000  Level Chicago Center
05:40PM 41.9364 -85.4667 265° West 440 506 36,000  Level Chicago Center
05:41PM 41.9244 -85.6258 264° West 436 502 36,000  Level Chicago Center
05:42PM 41.9122 -85.8181 265° West 435 501 36,000  Level Chicago Center
05:44PM 41.9000 -85.9781 264° West 435 501 36,000  Level Chicago Center
05:45PM 41.8900 -86.1400 265° West 437 503 36,000  Level Chicago Center
05:46PM 41.8783 -86.3006 264° West 436 502 36,000  Level Chicago Center
05:47PM 41.8664 -86.4639 264° West 440 506 36,000  Level Chicago Center
05:48PM 41.8508 -86.6608 264° West 443 510 36,000  Level Chicago Center
05:49PM 41.8386 -86.8175 264° West 446 513 36,000  Level Chicago Center
05:50PM 41.8250 -86.9833 264° West 448 516 36,000  Level Chicago Center
05:51PM 41.8106 -87.1497 263° West 450 518 36,000  Level Chicago Center
05:52PM 41.7944 -87.3478 264° West 448 516 36,000  Level Chicago Center
05:53PM 41.7800 -87.5122 263° West 449 517 36,000  Level Chicago Center
05:54PM 41.7658 -87.6781 264° West 453 521 36,000  Level Chicago Center
05:55PM 41.7514 -87.8419 263° West 449 517 36,000  Level Chicago Center
05:56PM 41.7369 -88.0064 263° West 450 518 36,000  Level Chicago Center
05:57PM 41.7192 -88.2042 263° West 455 524 36,000  Level Chicago Center
05:58PM 41.7042 -88.3692 263° West 454 522 36,000  Level Chicago Center
05:59PM 41.6881 -88.5358 263° West 458 527 36,000  Level Chicago Center
06:00PM 41.6722 -88.7008 263° West 454 522 36,000  Level Chicago Center
06:01PM 41.6539 -88.8994 263° West 451 519 36,000  Level Chicago Center
06:02PM 41.6361 -89.0639 262° West 451 519 36,000  Level Chicago Center
06:03PM 41.6214 -89.2292 263° West 452 520 36,000  Level Chicago Center
06:04PM 41.6056 -89.3931 263° West 448 516 36,000  Level Chicago Center
06:05PM 41.5864 -89.5700 262° West 451 519 36,000  Level Chicago Center
06:06PM 41.5689 -89.7361 262° West 453 521 36,000  Level Chicago Center
06:07PM 41.5522 -89.9033 262° West 456 525 36,000  Level Chicago Center
06:08PM 41.5303 -90.1036 262° West 457 526 36,000  Level Chicago Center
06:09PM 41.5125 -90.2714 262° West 459 528 36,000  Level Chicago Center
06:10PM 41.4942 -90.4372 262° West 456 525 36,000  Level Chicago Center
06:11PM 41.4764 -90.6028 262° West 454 522 36,000  Level Chicago Center
06:12PM 41.4556 -90.7711 261° West 459 528 36,000  Level Chicago Center
06:13PM 41.4361 -90.9375 261° West 456 525 36,000  Level Chicago Center
06:15PM 41.4133 -91.1381 261° West 459 528 36,000  Level Chicago Center
06:16PM 41.3936 -91.3069 261° West 462 532 36,000  Level Chicago Center
06:17PM 41.3722 -91.4833 261° West 463 533 36,000  Level Chicago Center
06:18PM 41.3517 -91.6525 261° West 465 535 36,000  Level Chicago Center
06:19PM 41.3303 -91.8228 261° West 469 540 36,000  Level Chicago Center
06:20PM 41.3092 -91.9950 261° West 472 543 36,000  Level Chicago Center
06:21PM 41.2872 -92.1636 260° West 469 540 36,000  Level Chicago Center
06:22PM 41.2617 -92.3686 261° West 470 541 36,000  Level Chicago Center
06:23PM 41.2406 -92.5286 260° West 469 540 36,000  Level Chicago Center
06:24PM 41.2186 -92.6969 260° West 466 536 36,000  Level Minneapolis Center
06:25PM 41.1964 -92.8647 260° West 468 539 36,000  Level Minneapolis Center
06:26PM 41.1736 -93.0314 260° West 466 536 36,000  Level Minneapolis Center
06:27PM 41.1517 -93.1992 260° West 466 536 36,000  Level Minneapolis Center
06:28PM 41.1303 -93.3608 260° West 456 525 36,000  Level Minneapolis Center
06:29PM 41.1017 -93.5608 259° West 462 532 36,000  Level Minneapolis Center
06:30PM 41.0789 -93.7281 260° West 465 535 36,000  Level Minneapolis Center
06:31PM 41.0544 -93.8972 259° West 469 540 36,000  Level Minneapolis Center
06:32PM 41.0292 -94.0669 259° West 472 543 36,000  Level Minneapolis Center
06:33PM 41.0044 -94.2356 259° West 472 543 36,000  Level Minneapolis Center
06:34PM 40.9750 -94.4383 259° West 472 543 36,000  Level Minneapolis Center
06:35PM 40.9508 -94.5989 259° West 471 542 36,000  Level Minneapolis Center
06:36PM 40.9244 -94.7686 258° West 470 541 36,000  Level Minneapolis Center
06:37PM 40.8986 -94.9381 259° West 470 541 36,000  Level Minneapolis Center
06:38PM 40.8683 -95.1406 259° West 466 536 36,000  Level Minneapolis Center
06:39PM 40.8386 -95.3367 259° West 458 527 36,000  Level Minneapolis Center
06:40PM 40.8122 -95.5014 258° West 457 526 36,000  Level Minneapolis Center
06:41PM 40.7858 -95.6706 258° West 462 532 36,000  Level Minneapolis Center
06:42PM 40.7589 -95.8375 258° West 462 532 36,000  Level Minneapolis Center
06:44PM 40.7314 -96.0044 258° West 462 532 36,000  Level Minneapolis Center
06:45PM 40.7033 -96.1728 258° West 466 536 36,000  Level Minneapolis Center
06:46PM 40.6761 -96.3419 258° West 469 540 36,000  Level Minneapolis Center
06:47PM 40.6428 -96.5414 258° West 464 534 36,000  Level Minneapolis Center
06:48PM 40.6150 -96.7081 258° West 463 533 36,000  Level Minneapolis Center
06:49PM 40.5872 -96.8733 258° West 463 533 36,000  Level Minneapolis Center
06:50PM 40.5586 -97.0394 257° West 465 535 36,000  Level Minneapolis Center
06:51PM 40.5297 -97.2025 257° West 461 531 36,000  Level Minneapolis Center
06:52PM 40.4983 -97.3794 257° West 458 527 36,000  Level Minneapolis Center
06:53PM 40.4703 -97.5414 257° West 456 525 36,000  Level Minneapolis Center
06:54PM 40.4422 -97.7039 257° West 455 524 36,000  Level Minneapolis Center
06:55PM 40.4125 -97.8653 256° West 454 522 36,000  Level Minneapolis Center
06:56PM 40.3772 -98.0625 257° West 459 528 36,000  Level Minneapolis Center
06:57PM 40.3472 -98.2267 257° West 461 531 36,000  Level Minneapolis Center
06:58PM 40.3164 -98.3897 256° West 459 528 36,000  Level Minneapolis Center
06:59PM 40.2861 -98.5517 256° West 458 527 36,000  Level Minneapolis Center
07:00PM 40.2569 -98.7147 257° West 457 526 36,000  Level Minneapolis Center
07:01PM 40.2261 -98.8764 256° West 453 521 36,000  Level Denver Center
07:02PM 40.1953 -99.0403 256° West 461 531 36,000  Level Denver Center
07:03PM 40.1631 -99.2014 255° West 458 527 36,000  Level Denver Center
07:04PM 40.1325 -99.3631 256° West 458 527 36,000  Level Denver Center
07:05PM 40.1006 -99.5233 255° West 456 525 36,000  Level Denver Center
07:06PM 40.0689 -99.6819 255° West 452 520 36,000  Level Denver Center
07:07PM 40.0375 -99.8422 256° West 452 520 36,000  Level Denver Center
07:08PM 39.9997 -100.0333 256° West 452 520 36,000  Level Denver Center
07:09PM 39.9658 -100.1914 254° West 452 520 36,000  Level Denver Center
07:10PM 39.9358 -100.3461 256° West 448 516 36,000  Level Denver Center
07:11PM 39.9044 -100.4967 255° West 449 517 36,000  Level Denver Center
07:12PM 39.8692 -100.6711 255° West 446 513 36,000  Level Denver Center
07:13PM 39.8431 -100.7947 255° West 445 512 36,000  Level Denver Center
07:14PM 39.8008 -100.9925 255° West 444 511 36,000  Level Denver Center
07:15PM 39.7697 -101.1397 255° West 443 510 36,000  Level Denver Center
07:16PM 39.7336 -101.3097 255° West 436 502 36,000  Level Denver Center
07:17PM 39.7028 -101.4561 255° West 437 503 36,000  Level Denver Center
07:19PM 39.6656 -101.6256 254° West 437 503 36,000  Level Denver Center
07:20PM 39.6350 -101.7697 255° West 434 499 36,000  Level Denver Center
07:21PM 39.5925 -101.9617 254° West 434 499 36,000  Level Denver Center
07:22PM 39.5619 -102.1019 254° West 424 488 36,000  Level Denver Center
07:23PM 39.5244 -102.2647 253° West 422 486 36,000  Level Denver Center
07:24PM 39.4917 -102.4172 254° West 421 484 36,000  Level Denver Center
07:26PM 39.4261 -102.7039 254° West 412 474 36,000  Level Denver Center
07:27PM 39.3950 -102.8456 254° West 408 470 36,000  Level Denver Center
07:28PM 39.3614 -102.9861 253° West 405 466 36,000  Level Denver Center
07:29PM 39.3294 -103.1292 254° West 411 473 36,000  Level Denver Center
07:30PM 39.2964 -103.2689 253° West 404 465 36,000  Level Denver Center
07:31PM 39.2631 -103.4117 253° West 409 471 36,000  Level Denver Center
07:32PM 39.2233 -103.5789 253° West 414 476 36,000  Level Denver Center
07:33PM 39.1892 -103.7214 253° West 412 474 36,000  Level Denver Center
07:34PM 39.1489 -103.8886 253° West 415 478 36,000  Level Denver Center
07:35PM 39.1156 -104.0314 253° West 412 474 36,000  Level Denver Center
07:36PM 39.0861 -104.1492 252° West 410 472 36,000  Level Denver Center
07:38PM 39.0453 -104.3158 253° West 413 475 36,000  Level Denver Center
07:39PM 39.0100 -104.4600 253° West 415 478 36,000  Level Denver Center
07:40PM 38.9694 -104.6258 253° West 412 474 36,000  Level Denver Center
07:41PM 38.9344 -104.7686 253° West 412 474 36,000  Level Denver Center
07:42PM 38.8997 -104.9103 253° West 410 472 36,000  Level Denver Center
07:43PM 38.8633 -105.0489 251° West 407 468 36,000  Level Denver Center
07:44PM 38.8289 -105.1903 253° West 411 473 36,000  Level Denver Center
07:45PM 38.7931 -105.3308 252° West 409 471 36,000  Level Denver Center
07:46PM 38.7575 -105.4706 252° West 409 471 36,000  Level Denver Center
07:47PM 38.7214 -105.6114 252° West 411 473 36,000  Level Denver Center
07:48PM 38.6775 -105.7761 251° West 415 478 36,000  Level Denver Center
07:49PM 38.6417 -105.9169 252° West 413 475 36,000  Level Denver Center
07:50PM 38.6044 -106.0606 252° West 412 474 36,000  Level Denver Center
07:51PM 38.5739 -106.1783 252° West 411 473 36,000  Level Denver Center
07:52PM 38.5286 -106.3450 251° West 412 474 36,000  Level Denver Center
07:53PM 38.4931 -106.4825 252° West 407 468 36,000  Level Denver Center
07:54PM 38.4564 -106.6192 251° West 404 465 36,000  Level Denver Center
07:55PM 38.4194 -106.7553 251° West 403 464 36,000  Level Denver Center
07:56PM 38.3833 -106.8894 251° West 401 461 36,000  Level Denver Center
07:57PM 38.3467 -107.0236 251° West 399 459 36,000  Level Denver Center
07:58PM 38.3103 -107.1592 251° West 401 461 36,000  Level Denver Center
07:59PM 38.2761 -107.2800 250° West 407 468 36,000  Level Denver Center
08:00PM 38.2303 -107.4492 251° West 401 461 36,000  Level Denver Center
08:01PM 38.1900 -107.5975 251° West 398 458 36,000  Level Denver Center
08:02PM 38.1542 -107.7236 250° West 397 457 36,000  Level Denver Center
08:03PM 38.1106 -107.8769 250° West 405 466 36,000  Level Denver Center
08:04PM 38.0750 -108.0061 251° West 403 464 36,000  Level Denver Center
08:05PM 38.0328 -108.1531 250° West 403 464 36,000  Level Denver Center
08:06PM 37.9961 -108.2794 250° West 402 463 36,000  Level Denver Center
08:08PM 37.9594 -108.4089 250° West 404 465 36,000  Level Denver Center
08:09PM 37.9161 -108.5583 250° West 405 466 36,000  Level Denver Center
08:10PM 37.8667 -108.7300 250° West 406 467 36,000  Level Denver Center
08:11PM 37.8294 -108.8597 250° West 410 472 36,000  Level Denver Center
08:12PM 37.7900 -109.0081 251° West 403 464 36,000  Level Denver Center
08:13PM 37.7567 -109.1381 252° West 407 468 36,000  Level Denver Center
08:14PM 37.7197 -109.2892 253° West 404 465 36,000  Level Denver Center
08:15PM 37.6869 -109.4181 252° West 403 464 36,000  Level Denver Center
08:16PM 37.6550 -109.5475 253° West 405 466 36,000  Level Denver Center
08:17PM 37.6169 -109.6975 252° West 403 464 36,000 -60 Level Denver Center
08:18PM 37.5847 -109.8264 253° West 405 466 35,900 -540 Descending Denver Center
08:19PM 37.5464 -109.9761 252° West 404 465 34,800 -840 Descending Denver Center
08:20PM 37.5033 -110.1453 252° West 400 460 34,000 -420 Descending Denver Center
08:21PM 37.4744 -110.2578 252° West 395 455 34,000  Level Denver Center
08:22PM 37.4328 -110.4164 252° West 396 456 34,000  Level Denver Center
08:23PM 37.3983 -110.5472 252° West 396 456 34,000  Level Denver Center
08:24PM 37.3636 -110.6783 252° West 396 456 34,000 -360 Level Denver Center
08:25PM 37.3294 -110.8092 252° West 395 455 33,300 -840 Descending Denver Center
08:26PM 37.2953 -110.9386 252° West 391 450 32,300 -660 Descending Denver Center
08:27PM 37.2611 -111.0650 251° West 385 443 32,000 -180 Descending Denver Center
08:29PM 37.2275 -111.1917 252° West 382 440 32,000  Level Denver Center
08:30PM 37.1936 -111.3178 251° West 383 441 32,000  Level Denver Center
08:31PM 37.1519 -111.4717 251° West 387 445 32,000  Level Denver Center
08:32PM 37.1194 -111.5961 252° West 378 435 32,000  Level Denver Center
08:33PM 37.0861 -111.7236 252° West 381 438 32,000  Level Denver Center
08:34PM 37.0497 -111.8528 251° West 389 448 32,000 -540 Level Denver Center
08:35PM 37.0136 -111.9803 251° West 389 448 30,900 -1,020 Descending Denver Center
08:36PM 36.9786 -112.1047 251° West 383 441 29,900 -1,140 Descending Denver Center
08:36PM 36.9642 -112.1550 250° West 379 436 29,500 -1,140 Descending Los Angeles Center
08:37PM 36.9308 -112.2772 251° West 374 430 28,500 -780 Descending Los Angeles Center
08:38PM 36.8964 -112.3986 250° West 371 427 28,000 -300 Descending Los Angeles Center
08:39PM 36.8794 -112.5225 260° West 365 420 28,000 -360 Level Los Angeles Center
08:40PM 36.9186 -112.6361 293° West 360 414 27,300 -780 Descending Los Angeles Center
08:41PM 36.9706 -112.7442 301° West 361 415 26,400 -960 Descending Los Angeles Center
08:42PM 37.0200 -112.8506 300° West 357 411 25,400 -1,140 Descending Los Angeles Center
08:43PM 37.0792 -112.9767 300° West 351 404 24,100 -720 Descending Los Angeles Center
08:44PM 37.1317 -113.0689 306° West 335 386 24,000 -60 Descending Los Angeles Center
08:45PM 37.1928 -113.1556 312° West 330 380 24,000  Level Los Angeles Center
08:47PM 37.2358 -113.2531 299° West 335 386 24,000  Level Los Angeles Center
08:48PM 37.1608 -113.3633 230° Southwest 361 415 24,000  Level Los Angeles Center
08:49PM 37.0928 -113.4642 230° Southwest 377 434 24,000  Level Los Angeles Center
08:50PM 37.0097 -113.5861 230° Southwest 384 442 24,000  Level Los Angeles Center
08:51PM 36.9506 -113.6733 230° Southwest 403 464 24,000  Level Los Angeles Center
08:52PM 36.8622 -113.8042 230° Southwest 411 473 24,000 -240 Level Los Angeles Center
08:53PM 36.7897 -113.9106 230° Southwest 409 471 23,600 -1,440 Descending Los Angeles Center
08:54PM 36.7156 -114.0181 229° Southwest 404 465 21,100 -2,340 Descending Los Angeles Center
08:55PM 36.6444 -114.1197 229° Southwest 392 451 18,800 -2,460 Descending Los Angeles Center
08:56PM 36.5631 -114.2386 230° Southwest 382 440 16,000 -2,520 Descending Los Angeles Center
08:57PM 36.4956 -114.3353 229° Southwest 373 429 13,700 -1,980 Descending Los Angeles Center
08:58PM 36.4422 -114.4153 230° Southwest 368 423 12,400 -840 Descending Los Angeles Center
08:59PM 36.3611 -114.4892 216° Southwest 316 364 12,000 -300 Descending Los Angeles Center
08:59PM 36.3269 -114.5003 195° South 292 336 12,000  Level Los Angeles Center
09:00PM 36.2867 -114.5039 184° South 278 320 12,000  Level Los Angeles Center
09:00PM 36.2506 -114.4967 171° South 260 299 12,000  Level Los Angeles Center
09:01PM 36.2300 -114.4933 173° South 260 299 12,000 -840 Level Los Angeles Center
09:01PM 36.1769 -114.4869 174° South 262 302 11,200 -1,020 Descending Los Angeles Center
09:02PM 36.1244 -114.4761 171° South 267 307 11,000 -240 Descending Los Angeles Center
09:02PM 36.1028 -114.4747 177° South 269 310 11,000 -420 Level Los Angeles Center
09:03PM 36.0511 -114.4731 179° South 275 316 10,600 -840 Descending Los Angeles Center
09:04PM 35.9844 -114.5047 201° Southwest 262 302 9,600 -1,080 Descending Los Angeles Center
09:05PM 35.9706 -114.5700 255° West 233 268 8,400 -1,260 Descending Los Angeles Center
09:05PM 35.9861 -114.5914 312° West 240 276 8,000 -420 Descending Los Angeles Center
09:06PM 36.0139 -114.6347 308° West 241 277 8,000  Level Los Angeles Center
09:06PM 36.0292 -114.6594 307° West 238 274 8,000  Level Los Angeles Center
09:07PM 36.0547 -114.6967 310° West 235 270 8,000 -60 Level Los Angeles Center
09:08PM 36.0733 -114.7625 289° West 222 255 7,900 -720 Descending Los Angeles Center
09:09PM 36.0739 -114.8417 271° West 180 207 6,600 -1,140 Descending Los Angeles Center
09:10PM 36.0744 -114.9019 271° West 188 216 5,600 -1,080 Descending Los Angeles Center
09:11PM 36.0728 -114.9644 268° West 187 215 4,600 -1,080 Descending Los Angeles Center
09:12PM 36.0742 -115.0306 272° West 192 221 3,600 -900 Descending Los Angeles Center
09:13PM 36.0744 -115.0917 270° West 164 189 2,700 -720 Descending Los Angeles Center
09:14PM 36.0742 -115.1447 270° West 171 197 2,100 -540 Descending Los Angeles Center
09:16PM 36.0667 -115.1500 219° Southwest  Level FlightAware Approximate